Birnamwood, Wisconsin
Current Conditions -  °F | °C
As of 12:15 AM on Tuesday 21 Oct 2014 (Local Time) from KAIG Reporting Station
Broken Clouds Broken Clouds  
Wind Chill: 35°   Ceiling: 4200
Heat Index: 38°   Visibility: 10mi
Dew Point: 37°   Wind: 5mph
Humidity: 94%   Direction: 350°N
Pressure: 30.06"   Gusts: NA
Location:  44.93°N, 89.21°W
Report Text: KAIG 210515Z AUTO 35004KT 10SM BKN042 04/03 A3006 RMK AO2 T00350026
Loading
Personal Weather Stations






























Interactive Weather Map
Tropical Storm Tracking
New forecast layout! Learn more

10-Day Weather Forecast

Advertisements
Track Severe Weather on mobile